createdAt,value
2023-07-15T00:00:50.634Z,1131.00
2023-07-15T00:01:50.730Z,1141.00
2023-07-15T00:02:50.778Z,1128.00
2023-07-15T00:03:50.860Z,1140.00
2023-07-15T00:04:50.855Z,1132.00
2023-07-15T00:05:50.897Z,1137.00
2023-07-15T00:06:50.952Z,1135.00
2023-07-15T00:07:50.982Z,1101.00
2023-07-15T00:08:51.157Z,1104.00
2023-07-15T00:09:51.080Z,1128.00
2023-07-15T00:10:51.171Z,1093.00
2023-07-15T00:11:51.169Z,1106.00
2023-07-15T00:12:51.221Z,1121.00
2023-07-15T00:13:51.241Z,1118.00
2023-07-15T00:14:51.442Z,1137.00
2023-07-15T00:15:51.469Z,1128.00
2023-07-15T00:16:51.424Z,1134.00
2023-07-15T00:17:51.675Z,1125.00
2023-07-15T00:18:51.478Z,1139.00
2023-07-15T00:19:52.045Z,1166.00
2023-07-15T00:20:51.440Z,1161.00
2023-07-15T00:21:51.472Z,1180.00
2023-07-15T00:22:51.467Z,1160.00
2023-07-15T00:23:51.460Z,1161.00
2023-07-15T00:24:51.490Z,1176.00
2023-07-15T00:25:51.451Z,1178.00
2023-07-15T00:26:51.521Z,1160.00
2023-07-15T00:27:51.478Z,1160.00
2023-07-15T00:28:51.539Z,1173.00
2023-07-15T00:29:51.449Z,1155.00
2023-07-15T00:30:51.476Z,1152.00
2023-07-15T00:31:51.620Z,1169.00
2023-07-15T00:32:51.508Z,1175.00
2023-07-15T00:33:51.522Z,1189.00
2023-07-15T00:34:51.475Z,1172.00
2023-07-15T00:35:51.484Z,1187.00
2023-07-15T00:36:51.445Z,1189.00
2023-07-15T00:37:51.511Z,1184.00
2023-07-15T00:38:51.453Z,1182.00
2023-07-15T00:39:51.520Z,1192.00
2023-07-15T00:40:51.492Z,1197.00
2023-07-15T00:41:51.518Z,1214.00
2023-07-15T00:42:51.464Z,1219.00
2023-07-15T00:43:51.553Z,1204.00
2023-07-15T00:44:51.531Z,1194.00
2023-07-15T00:45:51.523Z,1181.00
2023-07-15T00:46:51.477Z,1183.00
2023-07-15T00:47:51.590Z,1191.00
2023-07-15T00:48:51.735Z,1195.00
2023-07-15T00:49:51.500Z,1196.00
2023-07-15T00:50:51.467Z,1202.00
2023-07-15T00:51:51.479Z,1202.00
2023-07-15T00:52:51.549Z,1207.00
2023-07-15T00:53:51.521Z,1197.00
2023-07-15T00:54:51.479Z,1218.00
2023-07-15T00:55:51.467Z,1209.00
2023-07-15T00:56:51.490Z,1205.00
2023-07-15T00:57:51.487Z,1208.00
2023-07-15T00:58:51.504Z,1208.00
2023-07-15T00:59:51.457Z,1215.00
2023-07-15T01:00:52.115Z,1228.00
2023-07-15T01:01:51.542Z,1225.00
2023-07-15T01:02:52.128Z,1216.00
2023-07-15T01:03:51.714Z,1229.00
2023-07-15T01:04:51.468Z,1224.00
2023-07-15T01:05:51.494Z,1211.00
2023-07-15T01:06:51.503Z,1215.00
2023-07-15T01:07:51.478Z,1219.00
2023-07-15T01:08:51.703Z,1227.00
2023-07-15T01:09:51.589Z,1238.00
2023-07-15T01:10:52.079Z,1230.00
2023-07-15T01:11:51.530Z,1233.00
2023-07-15T01:12:52.088Z,1235.00
2023-07-15T01:13:51.546Z,1233.00
2023-07-15T01:14:51.627Z,1238.00
2023-07-15T01:15:51.561Z,1241.00
2023-07-15T01:16:51.551Z,1236.00
2023-07-15T01:17:51.522Z,1249.00
2023-07-15T01:18:51.480Z,1259.00
2023-07-15T01:19:51.567Z,1256.00
2023-07-15T01:20:51.511Z,1232.00
2023-07-15T01:21:51.573Z,1236.00
2023-07-15T01:22:51.523Z,1246.00
2023-07-15T01:23:51.523Z,1245.00
2023-07-15T01:24:51.553Z,1261.00
2023-07-15T01:25:51.555Z,1259.00
2023-07-15T01:26:51.532Z,1242.00
2023-07-15T01:27:51.589Z,1254.00
2023-07-15T01:28:51.557Z,1263.00
2023-07-15T01:29:51.582Z,1273.00
2023-07-15T01:30:51.571Z,1279.00
2023-07-15T01:31:51.571Z,1267.00
2023-07-15T01:32:51.620Z,1254.00
2023-07-15T01:33:51.589Z,1261.00
2023-07-15T01:34:51.616Z,1262.00
2023-07-15T01:35:51.578Z,1271.00
2023-07-15T01:36:51.608Z,1283.00
2023-07-15T01:37:51.613Z,1282.00
2023-07-15T01:38:51.762Z,1298.00
2023-07-15T01:39:51.614Z,1300.00
2023-07-15T01:40:51.658Z,1303.00
2023-07-15T01:41:51.752Z,1314.00
2023-07-15T01:42:51.769Z,1317.00
2023-07-15T01:43:51.828Z,1316.00
2023-07-15T01:44:51.857Z,1323.00
2023-07-15T01:45:51.835Z,1327.00
2023-07-15T01:46:51.843Z,1332.00
2023-07-15T01:47:51.807Z,1328.00
2023-07-15T01:48:51.838Z,1326.00
2023-07-15T01:49:52.610Z,1326.00
2023-07-15T01:50:51.881Z,1345.00
2023-07-15T01:51:51.831Z,1340.00
2023-07-15T01:52:51.771Z,1343.00
2023-07-15T01:53:52.145Z,1348.00
2023-07-15T01:54:51.835Z,1348.00
2023-07-15T01:55:51.853Z,1358.00
2023-07-15T01:56:52.596Z,1356.00
2023-07-15T01:57:51.832Z,1353.00
2023-07-15T01:58:51.885Z,1349.00
2023-07-15T01:59:51.888Z,1351.00
2023-07-15T02:00:51.890Z,1344.00
2023-07-15T02:01:51.868Z,1345.00
2023-07-15T02:02:51.901Z,1344.00
2023-07-15T02:03:51.962Z,1342.00
2023-07-15T02:04:51.842Z,1339.00
2023-07-15T02:05:51.890Z,1335.00
2023-07-15T02:06:51.821Z,1343.00
2023-07-15T02:07:51.911Z,1341.00
2023-07-15T02:08:51.874Z,1327.00
2023-07-15T02:09:51.903Z,1327.00
2023-07-15T02:10:51.888Z,1328.00
2023-07-15T02:11:51.912Z,1325.00
2023-07-15T02:12:51.917Z,1324.00
2023-07-15T02:13:51.943Z,1325.00
2023-07-15T02:14:51.909Z,1334.00
2023-07-15T02:15:51.916Z,1336.00
2023-07-15T02:16:52.052Z,1347.00
2023-07-15T02:17:52.005Z,1342.00
2023-07-15T02:18:51.942Z,1341.00
2023-07-15T02:19:51.949Z,1338.00
2023-07-15T02:20:51.965Z,1347.00
2023-07-15T02:21:51.952Z,1352.00
2023-07-15T02:22:52.017Z,1343.00
2023-07-15T02:23:51.972Z,1348.00
2023-07-15T02:24:51.961Z,1357.00
2023-07-15T02:25:51.991Z,1353.00
2023-07-15T02:26:51.998Z,1355.00
2023-07-15T02:27:52.014Z,1351.00
2023-07-15T02:28:52.016Z,1355.00
2023-07-15T02:29:52.007Z,1357.00
2023-07-15T02:30:52.057Z,1365.00
2023-07-15T02:31:52.029Z,1354.00
2023-07-15T02:32:52.096Z,1356.00
2023-07-15T02:33:52.029Z,1360.00
2023-07-15T02:34:52.045Z,1342.00
2023-07-15T02:35:52.038Z,1349.00
2023-07-15T02:36:52.023Z,1344.00
2023-07-15T02:37:52.045Z,1344.00
2023-07-15T02:38:52.073Z,1341.00
2023-07-15T02:39:52.091Z,1336.00
2023-07-15T02:40:52.055Z,1346.00
2023-07-15T02:41:52.065Z,1334.00
2023-07-15T02:42:52.052Z,1348.00
2023-07-15T02:43:52.085Z,1341.00
2023-07-15T02:44:52.051Z,1340.00
2023-07-15T02:45:52.056Z,1325.00
2023-07-15T02:46:52.155Z,1302.00
2023-07-15T02:47:52.119Z,1292.00
2023-07-15T02:48:52.079Z,1293.00
2023-07-15T02:49:52.093Z,1281.00
2023-07-15T02:50:52.078Z,1289.00
2023-07-15T02:51:52.113Z,1270.00
2023-07-15T02:52:52.097Z,1275.00
2023-07-15T02:53:52.124Z,1282.00
2023-07-15T02:54:52.154Z,1268.00
2023-07-15T02:55:52.158Z,1253.00
2023-07-15T02:56:52.137Z,1240.00
2023-07-15T02:57:52.154Z,1237.00
2023-07-15T02:58:52.140Z,1232.00
2023-07-15T02:59:52.138Z,1248.00
2023-07-15T03:00:52.175Z,1255.00
2023-07-15T03:01:52.185Z,1261.00
2023-07-15T03:02:52.168Z,1256.00
2023-07-15T03:03:52.166Z,1263.00
2023-07-15T03:04:52.186Z,1259.00
2023-07-15T03:05:52.142Z,1250.00
2023-07-15T03:06:52.170Z,1252.00
2023-07-15T03:07:52.173Z,1238.00
2023-07-15T03:08:52.158Z,1247.00
2023-07-15T03:09:52.178Z,1244.00
2023-07-15T03:10:52.183Z,1244.00
2023-07-15T03:11:52.181Z,1257.00
2023-07-15T03:12:52.188Z,1258.00
2023-07-15T03:13:52.198Z,1262.00
2023-07-15T03:14:52.222Z,1271.00
2023-07-15T03:15:52.196Z,1262.00
2023-07-15T03:16:52.227Z,1271.00
2023-07-15T03:17:52.217Z,1265.00
2023-07-15T03:18:52.243Z,1267.00
2023-07-15T03:19:52.234Z,1276.00
2023-07-15T03:20:52.241Z,1273.00
2023-07-15T03:21:52.252Z,1267.00
2023-07-15T03:22:52.282Z,1276.00
2023-07-15T03:23:52.307Z,1288.00
2023-07-15T03:24:52.248Z,1283.00
2023-07-15T03:25:52.265Z,1293.00
2023-07-15T03:26:52.294Z,1288.00
2023-07-15T03:27:52.314Z,1292.00
2023-07-15T03:28:52.321Z,1293.00
2023-07-15T03:29:52.308Z,1289.00
2023-07-15T03:30:52.309Z,1284.00
2023-07-15T03:31:52.409Z,1288.00
2023-07-15T03:32:52.412Z,1295.00
2023-07-15T03:33:52.450Z,1298.00
2023-07-15T03:34:52.367Z,1289.00
2023-07-15T03:35:52.386Z,1277.00
2023-07-15T03:36:52.391Z,1275.00
2023-07-15T03:37:52.435Z,1287.00
2023-07-15T03:38:52.424Z,1281.00
2023-07-15T03:39:52.420Z,1277.00
2023-07-15T03:40:52.420Z,1276.00
2023-07-15T03:41:52.438Z,1279.00
2023-07-15T03:42:52.435Z,1280.00
2023-07-15T03:43:52.441Z,1277.00
2023-07-15T03:44:52.484Z,1257.00
2023-07-15T03:45:52.529Z,1269.00
2023-07-15T03:46:52.455Z,1260.00
2023-07-15T03:47:52.557Z,1263.00
2023-07-15T03:48:52.488Z,1276.00
2023-07-15T03:49:52.642Z,1268.00
2023-07-15T03:50:52.506Z,1274.00
2023-07-15T03:51:52.501Z,1265.00
2023-07-15T03:52:52.589Z,1270.00
2023-07-15T03:53:52.500Z,1269.00
2023-07-15T03:54:52.560Z,1265.00
2023-07-15T03:55:52.526Z,1255.00
2023-07-15T03:56:52.544Z,1262.00
2023-07-15T03:57:52.573Z,1269.00
2023-07-15T03:58:52.588Z,1260.00
2023-07-15T03:59:52.598Z,1255.00
2023-07-15T04:00:52.582Z,1267.00
2023-07-15T04:01:52.630Z,1274.00
2023-07-15T04:02:52.663Z,1274.00
2023-07-15T04:03:52.658Z,1263.00
2023-07-15T04:04:52.646Z,1257.00
2023-07-15T04:05:52.663Z,1263.00
2023-07-15T04:06:52.647Z,1255.00
2023-07-15T04:07:52.657Z,1255.00
2023-07-15T04:08:52.656Z,1269.00
2023-07-15T04:09:52.688Z,1267.00
2023-07-15T04:10:52.704Z,1274.00
2023-07-15T04:11:52.725Z,1270.00
2023-07-15T04:12:52.728Z,1272.00
2023-07-15T04:13:52.759Z,1279.00
2023-07-15T04:14:52.728Z,1281.00
2023-07-15T04:15:52.853Z,1280.00
2023-07-15T04:16:52.758Z,1289.00
2023-07-15T04:17:52.788Z,1275.00
2023-07-15T04:18:52.795Z,1282.00
2023-07-15T04:19:52.804Z,1281.00
2023-07-15T04:20:52.899Z,1284.00
2023-07-15T04:21:52.817Z,1292.00
2023-07-15T04:22:52.863Z,1277.00
2023-07-15T04:23:52.903Z,1276.00
2023-07-15T04:24:52.861Z,1288.00
2023-07-15T04:25:52.883Z,1276.00
2023-07-15T04:26:52.962Z,1276.00
2023-07-15T04:27:52.898Z,1258.00
2023-07-15T04:28:52.890Z,1269.00
2023-07-15T04:29:52.927Z,1262.00
2023-07-15T04:30:52.931Z,1256.00
2023-07-15T04:31:52.970Z,1268.00
2023-07-15T04:32:53.010Z,1263.00
2023-07-15T04:33:53.006Z,1258.00
2023-07-15T04:34:53.005Z,1241.00
2023-07-15T04:35:52.986Z,1244.00
2023-07-15T04:36:53.029Z,1238.00
2023-07-15T04:37:53.007Z,1233.00
2023-07-15T04:38:53.097Z,1222.00
2023-07-15T04:39:53.059Z,1193.00
2023-07-15T04:40:53.072Z,1198.00
2023-07-15T04:41:53.068Z,1189.00
2023-07-15T04:42:53.094Z,1187.00
2023-07-15T04:43:53.117Z,1188.00
2023-07-15T04:44:53.118Z,1190.00
2023-07-15T04:45:53.191Z,1201.00
2023-07-15T04:46:53.140Z,1184.00
2023-07-15T04:47:53.165Z,1186.00
2023-07-15T04:48:53.209Z,1170.00
2023-07-15T04:49:53.189Z,1166.00
2023-07-15T04:50:53.197Z,1175.00
2023-07-15T04:51:53.211Z,1176.00
2023-07-15T04:52:53.225Z,1180.00
2023-07-15T04:53:53.226Z,1164.00
2023-07-15T04:54:53.297Z,1150.00
2023-07-15T04:55:53.259Z,1148.00
2023-07-15T04:56:53.285Z,1151.00
2023-07-15T04:57:53.267Z,1153.00
2023-07-15T04:58:53.280Z,1150.00
2023-07-15T04:59:53.298Z,1137.00
2023-07-15T05:00:53.339Z,1151.00
2023-07-15T05:01:53.391Z,1142.00
2023-07-15T05:02:53.330Z,1143.00
2023-07-15T05:03:53.338Z,1152.00
2023-07-15T05:04:53.328Z,1169.00
2023-07-15T05:05:53.291Z,1183.00
2023-07-15T05:06:53.314Z,1194.00
2023-07-15T05:07:58.291Z,1196.00
2023-07-15T05:08:54.395Z,1197.00
2023-07-15T05:09:53.319Z,1200.00
2023-07-15T05:10:53.341Z,1210.00
2023-07-15T05:11:53.357Z,1219.00
2023-07-15T05:12:53.678Z,1220.00
2023-07-15T05:13:53.300Z,1221.00
2023-07-15T05:14:53.315Z,1214.00
2023-07-15T05:15:53.403Z,1226.00
2023-07-15T05:16:53.281Z,1220.00
2023-07-15T05:17:53.373Z,1218.00
2023-07-15T05:18:53.284Z,1224.00
2023-07-15T05:19:53.256Z,1222.00
2023-07-15T05:20:53.278Z,1226.00
2023-07-15T05:21:53.238Z,1214.00
2023-07-15T05:22:53.336Z,1204.00
2023-07-15T05:23:53.225Z,1212.00
2023-07-15T05:24:53.210Z,1221.00
2023-07-15T05:25:53.218Z,1223.00
2023-07-15T05:26:53.230Z,1240.00
2023-07-15T05:27:53.203Z,1233.00
2023-07-15T05:28:53.202Z,1238.00
2023-07-15T05:29:53.178Z,1243.00
2023-07-15T05:30:53.236Z,1242.00
2023-07-15T05:31:53.195Z,1245.00
2023-07-15T05:32:53.210Z,1250.00
2023-07-15T05:33:53.215Z,1248.00
2023-07-15T05:34:53.170Z,1263.00
2023-07-15T05:35:53.147Z,1264.00
2023-07-15T05:36:53.165Z,1262.00
2023-07-15T05:37:53.147Z,1268.00
2023-07-15T05:38:53.123Z,1280.00
2023-07-15T05:39:53.110Z,1279.00
2023-07-15T05:40:53.144Z,1267.00
2023-07-15T05:41:53.135Z,1279.00
2023-07-15T05:42:53.167Z,1282.00
2023-07-15T05:43:53.222Z,1283.00
2023-07-15T05:44:53.315Z,1296.00
2023-07-15T05:45:53.391Z,1301.00
2023-07-15T05:46:53.352Z,1319.00
2023-07-15T05:47:53.476Z,1321.00
2023-07-15T05:48:53.492Z,1333.00
2023-07-15T05:49:53.568Z,1348.00
2023-07-15T05:50:53.630Z,1347.00
2023-07-15T05:51:53.645Z,1369.00
2023-07-15T05:52:53.735Z,1364.00
2023-07-15T05:53:53.832Z,1372.00
2023-07-15T05:54:53.846Z,1383.00
2023-07-15T05:55:56.544Z,1377.00
2023-07-15T05:56:53.923Z,1391.00
2023-07-15T05:57:53.900Z,1382.00
2023-07-15T05:58:53.888Z,1374.00
2023-07-15T05:59:53.867Z,1368.00
2023-07-15T06:00:53.937Z,1371.00
2023-07-15T06:01:53.887Z,1367.00
2023-07-15T06:02:53.931Z,1359.00
2023-07-15T06:03:53.946Z,1339.00
2023-07-15T06:04:53.861Z,1341.00
2023-07-15T06:05:53.847Z,1336.00
2023-07-15T06:06:53.835Z,1328.00
2023-07-15T06:07:53.822Z,1326.00
2023-07-15T06:08:53.835Z,1327.00
2023-07-15T06:09:53.816Z,1306.00
2023-07-15T06:10:53.812Z,1304.00
2023-07-15T06:11:53.782Z,1293.00
2023-07-15T06:12:53.776Z,1296.00
2023-07-15T06:13:53.766Z,1280.00
2023-07-15T06:14:53.784Z,1269.00
2023-07-15T06:15:53.784Z,1270.00
2023-07-15T06:16:53.824Z,1266.00
2023-07-15T06:17:53.790Z,1238.00
2023-07-15T06:18:53.765Z,1248.00
2023-07-15T06:19:53.767Z,1222.00
2023-07-15T06:20:53.749Z,1208.00
2023-07-15T06:21:53.747Z,1199.00
2023-07-15T06:22:53.822Z,1201.00
2023-07-15T06:23:53.718Z,1191.00
2023-07-15T06:24:53.743Z,1181.00
2023-07-15T06:25:53.707Z,1147.00
2023-07-15T06:26:53.703Z,1156.00
2023-07-15T06:27:53.685Z,1163.00
2023-07-15T06:28:53.675Z,1131.00
2023-07-15T06:29:53.681Z,1134.00
2023-07-15T06:30:53.713Z,1138.00
2023-07-15T06:31:53.664Z,1141.00
2023-07-15T06:32:53.802Z,1160.00
2023-07-15T06:33:53.658Z,1127.00
2023-07-15T06:34:53.665Z,1127.00
2023-07-15T06:35:53.637Z,1121.00
2023-07-15T06:36:55.975Z,1116.00
2023-07-15T06:37:53.828Z,1142.00
2023-07-15T06:38:53.846Z,1117.00
2023-07-15T06:39:53.899Z,1085.00
2023-07-15T06:40:53.883Z,1065.00
2023-07-15T06:41:53.923Z,1034.00
2023-07-15T06:42:53.906Z,1020.00
2023-07-15T06:43:53.900Z,985.00
2023-07-15T06:44:54.014Z,984.00
2023-07-15T06:45:53.939Z,940.00
2023-07-15T06:46:53.994Z,878.00
2023-07-15T06:47:53.980Z,859.00
2023-07-15T06:48:53.965Z,872.00
2023-07-15T06:49:54.269Z,865.00
2023-07-15T06:50:54.009Z,849.00
2023-07-15T06:51:53.960Z,825.00
2023-07-15T06:52:53.977Z,829.00
2023-07-15T06:53:53.968Z,800.00
2023-07-15T06:54:53.984Z,834.00
2023-07-15T06:55:58.708Z,836.00
2023-07-15T06:56:54.952Z,836.00
2023-07-15T06:57:53.950Z,818.00
2023-07-15T06:58:53.951Z,816.00
2023-07-15T06:59:53.972Z,808.00
2023-07-15T07:00:53.980Z,818.00
2023-07-15T07:01:53.915Z,848.00
2023-07-15T07:02:54.018Z,858.00
2023-07-15T07:03:53.912Z,884.00
2023-07-15T07:04:54.247Z,882.00
2023-07-15T07:05:53.959Z,927.00
2023-07-15T07:06:53.908Z,959.00
2023-07-15T07:07:53.887Z,977.00
2023-07-15T07:08:53.891Z,978.00
2023-07-15T07:09:53.917Z,984.00
2023-07-15T07:10:53.974Z,1004.00
2023-07-15T07:11:53.972Z,1015.00
2023-07-15T07:12:54.034Z,1010.00
2023-07-15T07:13:54.085Z,972.00
2023-07-15T07:14:54.168Z,979.00
2023-07-15T07:15:54.227Z,965.00
2023-07-15T07:16:54.304Z,943.00
2023-07-15T07:17:54.444Z,976.00
2023-07-15T07:18:54.481Z,994.00
2023-07-15T07:19:54.478Z,1015.00
2023-07-15T07:20:54.576Z,1011.00
2023-07-15T07:21:54.606Z,1019.00
2023-07-15T07:22:54.728Z,1027.00
2023-07-15T07:23:54.741Z,1042.00
2023-07-15T07:24:54.794Z,1054.00
2023-07-15T07:25:54.848Z,1066.00
2023-07-15T07:26:54.964Z,1068.00
2023-07-15T07:27:54.953Z,1081.00
2023-07-15T07:28:55.025Z,1095.00
2023-07-15T07:29:55.192Z,1078.00
2023-07-15T07:30:55.177Z,1077.00
2023-07-15T07:31:55.189Z,1093.00
2023-07-15T07:32:55.370Z,1110.00
2023-07-15T07:33:55.334Z,1093.00
2023-07-15T07:34:55.350Z,1108.00
2023-07-15T07:35:55.494Z,1100.00
2023-07-15T07:36:55.562Z,1084.00
2023-07-15T07:37:55.689Z,1087.00
2023-07-15T07:38:55.650Z,1109.00
2023-07-15T07:39:55.600Z,1103.00
2023-07-15T07:40:55.612Z,1115.00
2023-07-15T07:41:55.671Z,1129.00
2023-07-15T07:42:55.738Z,1102.00
2023-07-15T07:43:55.741Z,1101.00
2023-07-15T07:44:56.254Z,1155.00
2023-07-15T07:45:55.824Z,1132.00
2023-07-15T07:46:55.970Z,1112.00
2023-07-15T07:47:55.951Z,1056.00
2023-07-15T07:48:55.928Z,1103.00
2023-07-15T07:49:56.006Z,1106.00
2023-07-15T07:50:56.026Z,1072.00
2023-07-15T07:51:56.040Z,1076.00
2023-07-15T07:52:56.081Z,1125.00
2023-07-15T07:53:56.108Z,1070.00
2023-07-15T07:54:56.167Z,1092.00
2023-07-15T07:55:56.278Z,1048.00
2023-07-15T07:56:56.229Z,1063.00
2023-07-15T07:57:56.259Z,1040.00
2023-07-15T07:58:56.278Z,1059.00
2023-07-15T07:59:56.310Z,1036.00
2023-07-15T08:00:56.335Z,1015.00
2023-07-15T08:01:56.393Z,1067.00
2023-07-15T08:02:56.489Z,1045.00
2023-07-15T08:03:56.530Z,1060.00
2023-07-15T08:04:56.428Z,1046.00
2023-07-15T08:05:56.451Z,1054.00
2023-07-15T08:06:56.493Z,1002.00
2023-07-15T08:07:56.497Z,975.00
2023-07-15T08:08:56.512Z,958.00
2023-07-15T08:09:56.559Z,894.00
2023-07-15T08:10:56.572Z,903.00
2023-07-15T08:11:56.581Z,854.00
2023-07-15T08:12:56.616Z,852.00
2023-07-15T08:13:56.624Z,892.00
2023-07-15T08:14:56.701Z,837.00
2023-07-15T08:15:56.693Z,887.00
2023-07-15T08:16:56.730Z,882.00
2023-07-15T08:17:56.761Z,849.00
2023-07-15T08:18:56.759Z,808.00
2023-07-15T08:19:56.793Z,798.00
2023-07-15T08:20:56.765Z,778.00
2023-07-15T08:21:56.798Z,775.00
2023-07-15T08:22:56.896Z,793.00
2023-07-15T08:23:56.827Z,803.00
2023-07-15T08:24:57.289Z,827.00
2023-07-15T08:25:56.884Z,832.00
2023-07-15T08:26:56.868Z,773.00
2023-07-15T08:27:56.953Z,796.00
2023-07-15T08:28:56.886Z,828.00
2023-07-15T08:29:56.933Z,808.00
2023-07-15T08:30:56.941Z,825.00
2023-07-15T08:31:58.256Z,788.00
2023-07-15T08:32:56.977Z,757.00
2023-07-15T08:33:56.968Z,708.00
2023-07-15T08:34:56.965Z,710.00
2023-07-15T08:35:56.991Z,712.00
2023-07-15T08:36:56.953Z,704.00
2023-07-15T08:37:56.968Z,704.00
2023-07-15T08:38:56.983Z,687.00
2023-07-15T08:39:57.031Z,688.00
2023-07-15T08:40:57.036Z,659.00
2023-07-15T08:41:57.007Z,664.00
2023-07-15T08:42:57.016Z,691.00
2023-07-15T08:43:57.039Z,676.00
2023-07-15T08:44:57.052Z,664.00
2023-07-15T08:45:57.077Z,663.00
2023-07-15T08:46:57.041Z,667.00
2023-07-15T08:47:57.030Z,678.00
2023-07-15T08:48:57.028Z,655.00
2023-07-15T08:49:57.030Z,656.00
2023-07-15T08:50:57.019Z,656.00
2023-07-15T08:51:57.035Z,655.00
2023-07-15T08:52:57.057Z,650.00
2023-07-15T08:53:57.094Z,641.00
2023-07-15T08:54:57.044Z,639.00
2023-07-15T08:55:57.076Z,646.00
2023-07-15T08:56:57.044Z,636.00
2023-07-15T08:57:57.006Z,627.00
2023-07-15T08:58:57.036Z,630.00
2023-07-15T08:59:57.029Z,630.00
2023-07-15T09:00:57.020Z,623.00
2023-07-15T09:01:57.145Z,612.00
2023-07-15T09:02:57.100Z,615.00
2023-07-15T09:03:57.114Z,607.00
2023-07-15T09:04:57.046Z,608.00
2023-07-15T09:05:57.024Z,611.00
2023-07-15T09:06:57.071Z,605.00
2023-07-15T09:07:57.064Z,611.00
2023-07-15T09:08:57.092Z,614.00
2023-07-15T09:09:57.119Z,603.00
2023-07-15T09:10:57.072Z,595.00
2023-07-15T09:11:57.074Z,594.00
2023-07-15T09:12:57.116Z,588.00
2023-07-15T09:13:57.095Z,583.00
2023-07-15T09:14:57.103Z,581.00
2023-07-15T09:15:57.116Z,568.00
2023-07-15T09:16:57.089Z,559.00
2023-07-15T09:17:57.109Z,559.00
2023-07-15T09:18:57.081Z,555.00
2023-07-15T09:19:57.123Z,546.00
2023-07-15T09:20:57.087Z,560.00
2023-07-15T09:21:57.089Z,546.00
2023-07-15T09:22:57.148Z,558.00
2023-07-15T09:23:57.068Z,547.00
2023-07-15T09:24:57.052Z,553.00
2023-07-15T09:25:57.057Z,545.00
2023-07-15T09:26:57.072Z,543.00
2023-07-15T09:27:57.078Z,546.00
2023-07-15T09:28:57.080Z,532.00
2023-07-15T09:29:57.082Z,528.00
2023-07-15T09:30:57.047Z,523.00
2023-07-15T09:31:57.117Z,522.00
2023-07-15T09:32:57.054Z,511.00
2023-07-15T09:33:57.055Z,502.00
2023-07-15T09:34:57.077Z,501.00
2023-07-15T09:35:57.106Z,508.00
2023-07-15T09:36:57.131Z,507.00
2023-07-15T09:37:57.082Z,513.00
2023-07-15T09:38:57.093Z,501.00
2023-07-15T09:39:57.129Z,515.00
2023-07-15T09:40:57.130Z,518.00
2023-07-15T09:41:57.138Z,507.00
2023-07-15T09:42:57.151Z,506.00
2023-07-15T09:43:57.150Z,506.00
2023-07-15T09:44:57.170Z,500.00
2023-07-15T09:45:57.222Z,500.00
2023-07-15T09:46:57.252Z,503.00
2023-07-15T09:47:57.281Z,501.00
2023-07-15T09:48:57.283Z,504.00
2023-07-15T09:49:57.363Z,506.00
2023-07-15T09:50:57.395Z,507.00
2023-07-15T09:51:57.441Z,506.00
2023-07-15T09:52:57.502Z,518.00
2023-07-15T09:53:57.592Z,515.00
2023-07-15T09:54:57.612Z,505.00
2023-07-15T09:55:57.679Z,510.00
2023-07-15T09:56:57.749Z,518.00
2023-07-15T09:57:57.815Z,514.00
2023-07-15T09:58:57.844Z,506.00
2023-07-15T09:59:57.910Z,506.00
2023-07-15T10:00:57.997Z,513.00
2023-07-15T10:01:58.052Z,526.00
2023-07-15T10:02:58.145Z,511.00
2023-07-15T10:03:58.265Z,509.00
2023-07-15T10:04:58.258Z,507.00
2023-07-15T10:05:58.326Z,505.00
2023-07-15T10:06:58.366Z,500.00
2023-07-15T10:07:58.428Z,513.00
2023-07-15T10:08:59.433Z,512.00
2023-07-15T10:09:58.554Z,516.00
2023-07-15T10:10:58.628Z,520.00
2023-07-15T10:11:58.696Z,534.00
2023-07-15T10:12:58.718Z,525.00
2023-07-15T10:13:58.785Z,530.00
2023-07-15T10:14:58.858Z,531.00
2023-07-15T10:15:58.924Z,529.00
2023-07-15T10:16:58.997Z,526.00
2023-07-15T10:17:59.164Z,531.00
2023-07-15T10:18:59.097Z,539.00
2023-07-15T10:19:59.157Z,547.00
2023-07-15T10:20:59.217Z,528.00
2023-07-15T10:21:59.299Z,531.00
2023-07-15T10:22:59.409Z,542.00
2023-07-15T10:23:59.389Z,527.00
2023-07-15T10:24:59.456Z,522.00
2023-07-15T10:25:59.526Z,515.00
2023-07-15T10:26:59.552Z,518.00
2023-07-15T10:27:59.615Z,520.00
2023-07-15T10:28:59.638Z,519.00
2023-07-15T10:29:59.701Z,513.00
2023-07-15T10:31:06.059Z,523.00
2023-07-15T10:32:00.818Z,523.00
2023-07-15T10:32:59.827Z,523.00
2023-07-15T10:33:59.735Z,520.00
2023-07-15T10:34:59.744Z,522.00
2023-07-15T10:35:59.742Z,523.00
2023-07-15T10:36:59.733Z,529.00
2023-07-15T10:38:01.466Z,529.00
2023-07-15T10:38:59.752Z,529.00
2023-07-15T10:39:59.697Z,530.00
2023-07-15T10:40:59.708Z,531.00
2023-07-15T10:41:59.725Z,526.00
2023-07-15T10:42:59.691Z,531.00
2023-07-15T10:43:59.663Z,530.00
2023-07-15T10:44:59.677Z,532.00
2023-07-15T10:45:59.676Z,536.00
2023-07-15T10:46:59.738Z,528.00
2023-07-15T10:47:59.718Z,522.00
2023-07-15T10:48:59.646Z,540.00
2023-07-15T10:49:59.677Z,544.00
2023-07-15T10:50:59.648Z,529.00
2023-07-15T10:51:59.607Z,535.00
2023-07-15T10:52:59.621Z,533.00
2023-07-15T10:53:59.631Z,518.00
2023-07-15T10:54:59.672Z,528.00
2023-07-15T10:55:59.657Z,533.00
2023-07-15T10:56:59.597Z,531.00
2023-07-15T10:57:59.615Z,524.00
2023-07-15T10:58:59.591Z,531.00
2023-07-15T10:59:59.576Z,529.00
2023-07-15T11:00:59.641Z,530.00
2023-07-15T11:01:59.567Z,537.00
2023-07-15T11:02:59.612Z,552.00
2023-07-15T11:03:59.568Z,541.00
2023-07-15T11:04:59.647Z,538.00
2023-07-15T11:05:59.676Z,538.00
2023-07-15T11:06:59.805Z,538.00
2023-07-15T11:07:59.755Z,542.00
2023-07-15T11:08:59.824Z,554.00
2023-07-15T11:09:59.883Z,554.00
2023-07-15T11:10:59.904Z,549.00
2023-07-15T11:11:59.970Z,558.00
2023-07-15T11:12:59.993Z,564.00
2023-07-15T11:14:00.032Z,572.00
2023-07-15T11:15:00.074Z,566.00
2023-07-15T11:16:00.106Z,552.00
2023-07-15T11:17:00.226Z,543.00
2023-07-15T11:18:00.320Z,542.00
2023-07-15T11:19:00.220Z,560.00
2023-07-15T11:20:00.249Z,543.00
2023-07-15T11:21:00.280Z,540.00
2023-07-15T11:22:00.320Z,555.00
2023-07-15T11:23:00.448Z,554.00
2023-07-15T11:24:00.437Z,552.00
2023-07-15T11:25:00.480Z,548.00
2023-07-15T11:26:00.523Z,541.00
2023-07-15T11:27:00.527Z,547.00
2023-07-15T11:28:00.583Z,544.00
2023-07-15T11:29:00.676Z,544.00
2023-07-15T11:30:00.801Z,535.00
2023-07-15T11:31:00.757Z,539.00
2023-07-15T11:32:00.783Z,550.00
2023-07-15T11:33:00.873Z,549.00
2023-07-15T11:34:00.862Z,552.00
2023-07-15T11:35:03.098Z,539.00
2023-07-15T11:36:00.909Z,539.00
2023-07-15T11:37:00.902Z,541.00
2023-07-15T11:38:00.910Z,526.00
2023-07-15T11:39:00.879Z,518.00
2023-07-15T11:40:02.462Z,525.00
2023-07-15T11:41:00.877Z,521.00
2023-07-15T11:42:00.864Z,525.00
2023-07-15T11:43:00.864Z,516.00
2023-07-15T11:44:00.866Z,506.00
2023-07-15T11:45:00.870Z,523.00
2023-07-15T11:46:00.846Z,526.00
2023-07-15T11:47:00.937Z,531.00
2023-07-15T11:48:00.861Z,528.00
2023-07-15T11:49:00.849Z,527.00
2023-07-15T11:50:00.866Z,525.00
2023-07-15T11:51:00.829Z,521.00
2023-07-15T11:52:00.824Z,525.00
2023-07-15T11:53:00.802Z,510.00
2023-07-15T11:54:00.821Z,509.00
2023-07-15T11:55:00.800Z,511.00
2023-07-15T11:56:00.797Z,512.00
2023-07-15T11:57:00.791Z,505.00
2023-07-15T11:58:00.782Z,505.00
2023-07-15T11:59:00.771Z,511.00
2023-07-15T12:00:00.801Z,510.00
2023-07-15T12:01:00.764Z,507.00
2023-07-15T12:02:00.807Z,513.00
2023-07-15T12:03:00.776Z,507.00
2023-07-15T12:04:00.792Z,514.00
2023-07-15T12:05:00.734Z,515.00
2023-07-15T12:06:00.720Z,513.00
2023-07-15T12:07:00.709Z,516.00
2023-07-15T12:08:00.724Z,510.00
2023-07-15T12:09:00.713Z,500.00
2023-07-15T12:10:00.715Z,509.00
2023-07-15T12:11:00.687Z,500.00
2023-07-15T12:12:00.710Z,514.00
2023-07-15T12:13:00.686Z,509.00
2023-07-15T12:14:00.660Z,510.00
2023-07-15T12:15:00.723Z,518.00